Rostein — LLHI — position and weather

sailwx.info

Track history (hours):
 
Tides and Currents Weather Stations Pressure Air Temp Water Temp Dewpoint Dewpoint Depression Visibility Wind Speed Wind Dir Waves Ship Positions

Rostein

Last reported at 2016-May-21 15:33 UTC. Time now 2016-May-29 19:19 UTC.
Position N 69°14' E 017°58'.
Warning: this ship's position is 8 days out of date.

Length 57 m; draft 4 m.

Type: Cargo ship. MMSI: 257210000.

Date/timePositionNaut miles runAvg speedWind from/ knotsBaromVisibWave heightAir tempDewpointWater temp
2016-May-21 15:33N 69°14' E 017°58'7 7.2
2016-May-21 14:31N 69°08' E 017°45'3 0.4
2016-May-21 08:32N 69°08' E 017°38'9 9.5
2016-May-21 07:33N 69°14' E 017°57'5 0.3
2016-May-20 14:30N 69°19' E 017°59'9 9.2
2016-May-20 13:33N 69°10' E 017°58'  
2016-May-12 09:17N 69°09' E 017°51'810.4
2016-May-12 08:33N 69°07' E 017°31'4 0.6
2016-May-12 01:18N 69°04' E 017°21'811.4
2016-May-12 00:33N 69°08' E 017°43'9 9.1
2016-May-11 23:33N 69°15' E 017°58'  
Track history (hours):
 
Tides and Currents Weather Stations Pressure Air Temp Water Temp Dewpoint Dewpoint Depression Visibility Wind Speed Wind Dir Waves Ship Positions

Rostein

Last reported at 2016-May-21 15:33 UTC. Time now 2016-May-29 19:19 UTC.
Position N 69°14' E 017°58'.
Warning: this ship's position is 8 days out of date.

Length 57 m; draft 4 m.

Type: Cargo ship. MMSI: 257210000.

Date/timePositionNaut miles runAvg speedWind from/ knotsBaromVisibWave heightAir tempDewpointWater temp
2016-May-21 15:33N 69°14' E 017°58'7 7.2
2016-May-21 14:31N 69°08' E 017°45'3 0.4
2016-May-21 08:32N 69°08' E 017°38'9 9.5
2016-May-21 07:33N 69°14' E 017°57'5 0.3
2016-May-20 14:30N 69°19' E 017°59'9 9.2
2016-May-20 13:33N 69°10' E 017°58'  
2016-May-12 09:17N 69°09' E 017°51'810.4
2016-May-12 08:33N 69°07' E 017°31'4 0.6
2016-May-12 01:18N 69°04' E 017°21'811.4
2016-May-12 00:33N 69°08' E 017°43'9 9.1
2016-May-11 23:33N 69°15' E 017°58'  

Dump ship's entire track history